createdAt,value
2022-10-19T00:00:01.383Z,7.00
2022-10-19T00:02:29.323Z,7.00
2022-10-19T00:04:57.213Z,6.75
2022-10-19T00:07:25.085Z,6.00
2022-10-19T00:09:53.387Z,5.75
2022-10-19T00:12:21.213Z,6.50
2022-10-19T00:14:49.122Z,7.00
2022-10-19T00:17:18.410Z,5.50
2022-10-19T00:19:46.573Z,6.75
2022-10-19T00:22:14.647Z,6.00
2022-10-19T00:24:42.613Z,6.00
2022-10-19T00:27:10.569Z,5.50
2022-10-19T00:29:39.125Z,6.00
2022-10-19T00:32:07.073Z,5.00
2022-10-19T00:34:36.291Z,6.50
2022-10-19T00:37:04.110Z,5.50
2022-10-19T00:39:32.240Z,5.25
2022-10-19T00:42:00.098Z,5.50
2022-10-19T00:44:58.246Z,6.00
2022-10-19T00:47:26.227Z,5.50
2022-10-19T00:49:55.748Z,6.00
2022-10-19T00:52:24.407Z,5.75
2022-10-19T00:54:52.332Z,6.50
2022-10-19T00:57:20.176Z,5.00
2022-10-19T00:59:48.345Z,4.00
2022-10-19T01:02:16.197Z,5.50
2022-10-19T01:04:47.378Z,5.00
2022-10-19T01:07:16.623Z,5.50
2022-10-19T01:09:44.786Z,6.00
2022-10-19T01:12:26.442Z,5.00
2022-10-19T01:15:04.893Z,4.75
2022-10-19T01:17:38.749Z,5.50
2022-10-19T01:20:32.686Z,5.75
2022-10-19T01:23:24.879Z,5.00
2022-10-19T01:25:55.842Z,6.00
2022-10-19T01:28:34.486Z,4.25
2022-10-19T01:31:05.311Z,5.25
2022-10-19T01:33:38.624Z,4.50
2022-10-19T01:36:10.364Z,6.00
2022-10-19T01:38:40.081Z,4.75
2022-10-19T01:41:13.732Z,3.75
2022-10-19T01:43:44.083Z,4.50
2022-10-19T01:46:14.939Z,5.50
2022-10-19T01:48:43.684Z,5.25
2022-10-19T01:51:13.413Z,4.75
2022-10-19T01:53:42.441Z,4.50
2022-10-19T01:56:10.357Z,4.75
2022-10-19T01:58:38.503Z,5.50
2022-10-19T02:01:07.954Z,6.00
2022-10-19T02:03:37.273Z,5.50
2022-10-19T02:06:05.410Z,5.75
2022-10-19T02:08:37.824Z,3.50
2022-10-19T02:11:06.191Z,4.25
2022-10-19T02:13:34.058Z,5.00
2022-10-19T02:16:03.107Z,3.50
2022-10-19T02:18:33.290Z,4.50
2022-10-19T02:21:03.447Z,4.25
2022-10-19T02:23:31.403Z,5.00
2022-10-19T02:25:59.272Z,5.25
2022-10-19T02:28:27.216Z,3.50
2022-10-19T02:30:55.425Z,4.50
2022-10-19T02:33:23.303Z,4.50
2022-10-19T02:35:51.149Z,4.00
2022-10-19T02:38:21.830Z,4.75
2022-10-19T02:40:52.822Z,3.50
2022-10-19T02:43:23.081Z,3.75
2022-10-19T02:45:53.330Z,4.50
2022-10-19T02:48:22.734Z,4.50
2022-10-19T02:50:51.992Z,4.50
2022-10-19T02:53:21.183Z,4.75
2022-10-19T02:55:49.175Z,5.00
2022-10-19T02:58:17.054Z,3.50
2022-10-19T03:00:45.285Z,4.00
2022-10-19T03:03:13.223Z,3.50
2022-10-19T03:05:41.034Z,4.50
2022-10-19T03:08:08.868Z,4.75
2022-10-19T03:10:38.480Z,4.50
2022-10-19T03:13:06.326Z,5.75
2022-10-19T03:15:34.188Z,4.00
2022-10-19T03:18:02.059Z,4.50
2022-10-19T03:20:30.219Z,4.50
2022-10-19T03:22:58.142Z,4.00
2022-10-19T03:25:26.081Z,3.75
2022-10-19T03:27:55.305Z,3.50
2022-10-19T03:30:23.418Z,4.50
2022-10-19T03:32:51.302Z,3.00
2022-10-19T03:35:19.262Z,4.00
2022-10-19T03:37:47.090Z,4.50
2022-10-19T03:40:15.471Z,4.00
2022-10-19T03:42:43.330Z,4.25
2022-10-19T03:45:12.823Z,4.00
2022-10-19T03:47:40.672Z,5.25
2022-10-19T03:50:11.294Z,3.75
2022-10-19T03:52:39.155Z,3.50
2022-10-19T03:55:08.188Z,4.25
2022-10-19T03:57:36.274Z,4.00
2022-10-19T04:00:05.123Z,4.25
2022-10-19T04:02:34.377Z,3.25
2022-10-19T04:05:02.231Z,4.50
2022-10-19T04:07:30.085Z,3.50
2022-10-19T04:09:58.303Z,3.50
2022-10-19T04:12:26.189Z,4.00
2022-10-19T04:14:57.420Z,4.25
2022-10-19T04:17:26.441Z,4.50
2022-10-19T04:19:56.000Z,3.50
2022-10-19T04:22:23.962Z,5.25
2022-10-19T04:24:51.811Z,5.25
2022-10-19T04:27:20.422Z,5.25
2022-10-19T04:29:48.557Z,5.50
2022-10-19T04:32:16.440Z,5.00
2022-10-19T04:34:44.256Z,4.75
2022-10-19T04:37:13.504Z,6.00
2022-10-19T04:39:43.330Z,4.50
2022-10-19T04:42:11.203Z,5.00
2022-10-19T04:44:39.590Z,5.00
2022-10-19T04:47:07.495Z,6.00
2022-10-19T04:49:35.607Z,4.50
2022-10-19T04:52:03.548Z,5.50
2022-10-19T04:54:32.883Z,4.50
2022-10-19T04:57:00.770Z,4.75
2022-10-19T04:59:29.453Z,6.25
2022-10-19T05:01:57.350Z,4.75
2022-10-19T05:04:25.346Z,5.25
2022-10-19T05:06:53.224Z,4.50
2022-10-19T05:09:21.530Z,4.50
2022-10-19T05:11:51.792Z,4.50
2022-10-19T05:14:19.688Z,5.25
2022-10-19T05:16:47.603Z,4.75
2022-10-19T05:19:15.776Z,4.75
2022-10-19T05:21:43.721Z,4.75
2022-10-19T05:24:12.863Z,5.25
2022-10-19T05:26:40.843Z,4.50
2022-10-19T05:29:12.931Z,4.00
2022-10-19T05:31:40.767Z,4.75
2022-10-19T05:36:41.595Z,4.50
2022-10-19T05:39:11.858Z,4.50
2022-10-19T05:41:39.818Z,4.50
2022-10-19T05:44:07.765Z,4.50
2022-10-19T05:46:37.045Z,6.00
2022-10-19T05:49:05.149Z,4.25
2022-10-19T05:51:33.072Z,4.50
2022-10-19T05:54:00.946Z,4.75
2022-10-19T05:56:30.007Z,4.50
2022-10-19T05:58:58.282Z,5.00
2022-10-19T06:01:26.302Z,4.75
2022-10-19T06:03:56.314Z,6.50
2022-10-19T06:06:24.358Z,4.75
2022-10-19T06:08:52.741Z,5.00
2022-10-19T06:11:21.411Z,3.50
2022-10-19T06:13:50.383Z,5.00
2022-10-19T06:16:18.868Z,5.00
2022-10-19T06:18:47.056Z,4.50
2022-10-19T06:21:17.267Z,4.00
2022-10-19T06:23:45.265Z,4.75
2022-10-19T06:26:14.320Z,4.50
2022-10-19T06:28:42.930Z,4.50
2022-10-19T06:31:10.943Z,4.75
2022-10-19T06:33:40.399Z,4.50
2022-10-19T06:36:08.605Z,4.25
2022-10-19T06:38:37.921Z,3.25
2022-10-19T06:41:06.250Z,4.25
2022-10-19T06:43:34.180Z,4.50
2022-10-19T06:46:05.348Z,4.50
2022-10-19T06:48:33.215Z,4.50
2022-10-19T06:51:02.149Z,4.00
2022-10-19T06:53:30.052Z,4.50
2022-10-19T06:56:00.108Z,4.00
2022-10-19T06:58:27.972Z,4.25
2022-10-19T07:00:57.185Z,3.50
2022-10-19T07:03:25.344Z,4.50
2022-10-19T07:05:56.033Z,4.25
2022-10-19T07:08:23.933Z,5.25
2022-10-19T07:10:52.484Z,4.00
2022-10-19T07:13:21.725Z,4.50
2022-10-19T07:15:49.696Z,4.50
2022-10-19T07:18:17.569Z,4.50
2022-10-19T07:20:55.306Z,4.00
2022-10-19T07:23:23.174Z,4.25
2022-10-19T07:25:52.684Z,4.00
2022-10-19T07:28:21.994Z,4.25
2022-10-19T07:30:50.147Z,3.50
2022-10-19T07:35:50.808Z,4.25
2022-10-19T07:38:18.713Z,4.00
2022-10-19T07:40:47.548Z,4.50
2022-10-19T07:43:15.600Z,4.00
2022-10-19T07:45:44.840Z,4.00
2022-10-19T07:48:12.677Z,4.50
2022-10-19T07:50:40.816Z,3.50
2022-10-19T07:53:08.734Z,4.00
2022-10-19T07:55:36.617Z,4.00
2022-10-19T07:58:04.520Z,4.00
2022-10-19T08:00:32.768Z,3.75
2022-10-19T08:03:31.670Z,2.75
2022-10-19T08:05:49.873Z,3.25
2022-10-19T08:08:17.731Z,3.50
2022-10-19T08:10:45.912Z,3.50
2022-10-19T08:13:13.790Z,3.50
2022-10-19T08:15:41.635Z,4.50
2022-10-19T08:18:11.490Z,3.75
2022-10-19T08:20:41.944Z,3.25
2022-10-19T08:23:09.795Z,3.50
2022-10-19T08:25:38.279Z,4.00
2022-10-19T08:28:06.143Z,3.75
2022-10-19T08:30:35.572Z,3.00
2022-10-19T08:33:04.464Z,3.50
2022-10-19T08:35:33.768Z,3.50
2022-10-19T08:38:02.873Z,4.50
2022-10-19T08:40:31.651Z,3.00
2022-10-19T08:43:01.792Z,3.00
2022-10-19T08:45:42.687Z,3.25
2022-10-19T08:48:24.263Z,2.50
2022-10-19T08:50:53.749Z,3.50
2022-10-19T08:53:25.648Z,3.75
2022-10-19T08:56:03.781Z,3.50
2022-10-19T08:58:40.777Z,3.50
2022-10-19T09:01:10.690Z,4.25
2022-10-19T09:03:55.131Z,3.50
2022-10-19T09:06:27.366Z,2.75
2022-10-19T09:08:56.029Z,3.25
2022-10-19T09:11:25.879Z,3.75
2022-10-19T09:14:05.029Z,3.50
2022-10-19T09:16:34.748Z,2.50
2022-10-19T09:19:02.861Z,3.50
2022-10-19T09:21:42.066Z,3.00
2022-10-19T09:24:17.644Z,3.50
2022-10-19T09:26:50.769Z,3.50
2022-10-19T09:29:22.948Z,3.50
2022-10-19T09:31:50.830Z,3.50
2022-10-19T09:34:22.965Z,2.50
2022-10-19T09:36:53.639Z,3.50
2022-10-19T09:39:23.490Z,3.00
2022-10-19T09:41:55.432Z,3.00
2022-10-19T09:44:23.705Z,3.25
2022-10-19T09:46:52.987Z,3.50
2022-10-19T09:49:21.341Z,3.00
2022-10-19T09:51:52.155Z,2.50
2022-10-19T09:54:32.796Z,3.00
2022-10-19T09:57:00.936Z,2.50
2022-10-19T09:59:30.714Z,2.50
2022-10-19T10:02:05.275Z,3.50
2022-10-19T10:04:36.388Z,2.75
2022-10-19T10:07:04.491Z,3.00
2022-10-19T10:09:35.284Z,2.50
2022-10-19T10:12:03.208Z,2.50
2022-10-19T10:14:31.832Z,3.50
2022-10-19T10:17:03.340Z,2.50
2022-10-19T10:19:32.264Z,3.25
2022-10-19T10:22:00.811Z,2.25
2022-10-19T10:24:29.096Z,2.25
2022-10-19T10:26:59.125Z,3.25
2022-10-19T10:29:28.026Z,3.00
2022-10-19T10:31:56.958Z,3.00
2022-10-19T10:34:50.060Z,3.00
2022-10-19T10:37:21.419Z,3.50
2022-10-19T10:39:52.649Z,2.50
2022-10-19T10:42:26.508Z,2.50
2022-10-19T10:44:56.261Z,2.50
2022-10-19T10:47:26.125Z,2.00
2022-10-19T10:49:55.010Z,3.00
2022-10-19T10:52:22.899Z,3.25
2022-10-19T10:55:01.415Z,2.00
2022-10-19T10:57:32.829Z,2.50
2022-10-19T11:00:03.721Z,1.75
2022-10-19T11:02:36.109Z,2.50
2022-10-19T11:05:05.883Z,3.50
2022-10-19T11:07:34.418Z,2.50
2022-10-19T11:10:07.837Z,1.25
2022-10-19T11:12:38.378Z,2.50
2022-10-19T11:15:14.346Z,2.00
2022-10-19T11:17:45.270Z,2.50
2022-10-19T11:20:15.946Z,2.50
2022-10-19T11:22:46.059Z,2.50
2022-10-19T11:25:24.980Z,2.75
2022-10-19T11:27:59.731Z,2.50
2022-10-19T11:30:27.623Z,2.25
2022-10-19T11:33:00.579Z,2.00
2022-10-19T11:35:52.890Z,2.00
2022-10-19T11:38:30.213Z,2.50
2022-10-19T11:41:17.289Z,2.25
2022-10-19T11:43:52.265Z,2.50
2022-10-19T11:46:23.102Z,2.50
2022-10-19T11:49:09.953Z,2.50
2022-10-19T11:51:40.524Z,2.50
2022-10-19T11:54:17.278Z,2.50
2022-10-19T11:57:02.236Z,3.00
2022-10-19T11:59:38.838Z,2.25
2022-10-19T12:02:13.682Z,2.50
2022-10-19T12:04:47.924Z,2.50
2022-10-19T12:07:46.274Z,2.50
2022-10-19T12:10:19.687Z,1.50
2022-10-19T12:12:49.118Z,2.00
2022-10-19T12:15:24.828Z,1.75
2022-10-19T12:17:53.898Z,1.50
2022-10-19T12:20:26.442Z,2.50
2022-10-19T12:22:54.416Z,2.50
2022-10-19T12:25:22.282Z,2.25
2022-10-19T12:27:50.714Z,2.00
2022-10-19T12:30:20.388Z,1.50
2022-10-19T12:33:03.011Z,1.50
2022-10-19T12:35:42.430Z,1.50
2022-10-19T12:38:12.277Z,1.75
2022-10-19T12:40:41.772Z,2.50
2022-10-19T12:43:11.635Z,2.50
2022-10-19T12:45:40.658Z,1.25
2022-10-19T12:48:27.816Z,2.00
2022-10-19T12:51:03.583Z,1.50
2022-10-19T12:53:32.519Z,1.50
2022-10-19T12:56:01.688Z,1.00
2022-10-19T12:58:29.589Z,2.25
2022-10-19T13:01:00.993Z,2.50
2022-10-19T13:03:31.644Z,1.00
2022-10-19T13:05:59.880Z,1.00
2022-10-19T13:08:29.462Z,1.75
2022-10-19T13:11:08.761Z,1.50
2022-10-19T13:14:00.126Z,2.50
2022-10-19T13:17:06.298Z,1.50
2022-10-19T13:19:35.593Z,2.00
2022-10-19T13:22:28.368Z,1.50
2022-10-19T13:25:32.857Z,1.50
2022-10-19T13:28:45.423Z,1.50
2022-10-19T13:31:24.546Z,2.00
2022-10-19T13:33:53.693Z,1.50
2022-10-19T13:36:23.297Z,1.50
2022-10-19T13:39:10.482Z,1.50
2022-10-19T13:41:51.526Z,1.75
2022-10-19T13:44:27.935Z,1.50
2022-10-19T13:47:09.712Z,1.50
2022-10-19T13:49:58.604Z,1.50
2022-10-19T13:52:51.176Z,1.50
2022-10-19T13:55:46.570Z,1.50
2022-10-19T13:58:52.806Z,1.50
2022-10-19T14:01:27.324Z,1.50
2022-10-19T14:04:01.531Z,1.50
2022-10-19T14:06:31.728Z,1.50
2022-10-19T14:09:37.747Z,1.50
2022-10-19T14:12:08.395Z,2.50
2022-10-19T14:19:47.503Z,1.50
2022-10-19T14:22:30.135Z,1.00
2022-10-19T14:25:07.544Z,1.50
2022-10-19T14:27:35.807Z,1.50
2022-10-19T14:30:04.620Z,2.00
2022-10-19T14:32:33.991Z,1.50
2022-10-19T14:37:38.685Z,2.00
2022-10-19T14:40:09.918Z,1.50
2022-10-19T14:42:42.309Z,2.00
2022-10-19T14:45:18.127Z,1.50
2022-10-19T14:47:59.214Z,1.50
2022-10-19T14:50:40.194Z,1.50
2022-10-19T14:53:18.173Z,1.50
2022-10-19T14:55:47.477Z,1.50
2022-10-19T14:58:17.954Z,1.00
2022-10-19T15:00:46.298Z,1.50
2022-10-19T15:03:16.194Z,1.50
2022-10-19T15:05:48.218Z,1.50
2022-10-19T15:08:20.003Z,2.00
2022-10-19T15:10:49.561Z,3.50
2022-10-19T15:13:24.019Z,2.00
2022-10-19T15:15:52.195Z,3.75
2022-10-19T15:18:43.497Z,2.00
2022-10-19T15:21:13.922Z,3.50
2022-10-19T15:23:43.040Z,3.50
2022-10-19T15:26:21.460Z,3.50
2022-10-19T15:28:49.726Z,3.50
2022-10-19T15:31:19.429Z,3.00
2022-10-19T15:33:50.039Z,4.00
2022-10-19T15:36:19.523Z,2.00
2022-10-19T15:38:48.172Z,2.50
2022-10-19T15:41:28.705Z,4.00
2022-10-19T15:43:58.887Z,3.50
2022-10-19T15:46:32.209Z,3.50
2022-10-19T15:49:05.463Z,3.00
2022-10-19T15:51:44.160Z,3.00
2022-10-19T15:54:12.392Z,4.00
2022-10-19T15:56:41.667Z,2.50
2022-10-19T15:59:13.125Z,1.75
2022-10-19T16:01:41.008Z,2.00
2022-10-19T16:04:09.117Z,4.00
2022-10-19T16:06:39.114Z,3.00
2022-10-19T16:09:07.311Z,2.75
2022-10-19T16:11:36.464Z,4.00
2022-10-19T16:14:05.766Z,3.75
2022-10-19T16:16:34.122Z,3.50
2022-10-19T16:19:02.447Z,4.75
2022-10-19T16:21:31.474Z,3.75
2022-10-19T16:23:59.377Z,4.75
2022-10-19T16:26:27.615Z,4.75
2022-10-19T16:28:55.710Z,4.25
2022-10-19T16:31:25.271Z,4.00
2022-10-19T16:33:53.210Z,5.50
2022-10-19T16:36:21.170Z,4.50
2022-10-19T16:38:49.450Z,5.00
2022-10-19T16:41:17.446Z,6.50
2022-10-19T16:43:45.377Z,4.75
2022-10-19T16:46:13.261Z,5.50
2022-10-19T16:48:42.569Z,7.00
2022-10-19T16:51:29.409Z,5.75
2022-10-19T16:53:59.027Z,6.75
2022-10-19T16:56:28.434Z,6.00
2022-10-19T16:58:57.402Z,6.00
2022-10-19T17:01:25.314Z,7.25
2022-10-19T17:03:54.902Z,7.25
2022-10-19T17:06:23.184Z,4.75
2022-10-19T17:11:39.578Z,8.75
2022-10-19T17:14:08.281Z,8.00
2022-10-19T17:16:36.788Z,8.50
2022-10-19T17:19:06.656Z,7.75
2022-10-19T17:21:37.899Z,8.00
2022-10-19T17:24:07.127Z,8.75
2022-10-19T17:26:36.407Z,10.00
2022-10-19T17:29:04.367Z,13.75
2022-10-19T17:31:32.376Z,13.25
2022-10-19T17:34:00.646Z,16.25
2022-10-19T17:36:30.853Z,16.50
2022-10-19T17:39:00.052Z,16.25
2022-10-19T17:41:28.029Z,18.75
2022-10-19T17:43:55.997Z,17.25
2022-10-19T17:46:25.141Z,20.50
2022-10-19T17:48:53.290Z,21.25
2022-10-19T17:51:23.627Z,22.25
2022-10-19T17:53:52.856Z,20.00
2022-10-19T17:56:20.959Z,19.75
2022-10-19T17:58:49.282Z,15.00
2022-10-19T18:01:17.539Z,11.25
2022-10-19T18:03:45.372Z,11.25
2022-10-19T18:06:14.357Z,11.00
2022-10-19T18:08:43.082Z,11.25
2022-10-19T18:11:13.572Z,13.25
2022-10-19T18:13:41.459Z,12.25
2022-10-19T18:16:10.453Z,15.00
2022-10-19T18:18:39.381Z,13.50
2022-10-19T18:21:07.880Z,17.00
2022-10-19T18:23:35.853Z,17.50
2022-10-19T18:26:04.157Z,17.25
2022-10-19T18:28:33.649Z,16.25
2022-10-19T18:31:07.142Z,18.75
2022-10-19T18:33:35.458Z,19.75
2022-10-19T18:36:03.434Z,18.50
2022-10-19T18:38:31.315Z,19.75
2022-10-19T18:41:02.527Z,20.75
2022-10-19T18:43:30.403Z,22.75
2022-10-19T18:46:00.112Z,22.75
2022-10-19T18:48:29.303Z,22.75
2022-10-19T18:50:57.489Z,20.00
2022-10-19T18:53:25.362Z,23.25
2022-10-19T18:55:59.445Z,24.75
2022-10-19T18:58:27.391Z,22.50
2022-10-19T19:01:05.255Z,22.75
2022-10-19T19:03:33.202Z,19.50
2022-10-19T19:06:01.620Z,21.25
2022-10-19T19:08:29.704Z,24.25
2022-10-19T19:10:58.021Z,23.25
2022-10-19T19:13:26.889Z,22.75
2022-10-19T19:15:58.742Z,22.25
2022-10-19T19:18:29.167Z,21.50
2022-10-19T19:20:57.459Z,21.50
2022-10-19T19:23:25.403Z,24.50
2022-10-19T19:25:53.451Z,22.00
2022-10-19T19:28:21.331Z,22.50
2022-10-19T19:30:49.535Z,21.25
2022-10-19T19:33:17.392Z,23.50
2022-10-19T19:35:46.967Z,22.75
2022-10-19T19:38:15.161Z,21.00
2022-10-19T19:40:43.603Z,18.75
2022-10-19T19:43:11.576Z,22.50
2022-10-19T19:45:39.489Z,21.50
2022-10-19T19:48:07.560Z,23.25
2022-10-19T19:50:35.498Z,22.50
2022-10-19T19:53:05.064Z,23.25
2022-10-19T19:55:38.107Z,20.25
2022-10-19T19:58:07.080Z,20.50
2022-10-19T20:00:35.235Z,22.00
2022-10-19T20:03:03.083Z,20.00
2022-10-19T20:05:30.937Z,21.50
2022-10-19T20:07:58.811Z,22.00
2022-10-19T20:10:28.415Z,21.75
2022-10-19T20:12:56.387Z,19.25
2022-10-19T20:15:24.283Z,24.75
2022-10-19T20:17:52.166Z,24.25
2022-10-19T20:20:21.224Z,23.25
2022-10-19T20:22:49.530Z,24.25
2022-10-19T20:25:17.523Z,27.50
2022-10-19T20:27:46.793Z,28.75
2022-10-19T20:30:14.975Z,27.00
2022-10-19T20:32:42.860Z,25.50
2022-10-19T20:35:10.949Z,25.25
2022-10-19T20:37:38.824Z,27.00
2022-10-19T20:40:08.988Z,24.25
2022-10-19T20:42:37.371Z,20.75
2022-10-19T20:45:10.079Z,22.50
2022-10-19T20:47:37.997Z,23.75
2022-10-19T20:50:06.761Z,19.50
2022-10-19T20:52:34.809Z,21.25
2022-10-19T20:55:02.849Z,21.25
2022-10-19T20:57:31.217Z,22.75
2022-10-19T20:59:59.384Z,21.50
2022-10-19T21:02:28.726Z,23.50
2022-10-19T21:04:56.597Z,18.00
2022-10-19T21:07:24.489Z,20.00
2022-10-19T21:09:52.715Z,19.00
2022-10-19T21:12:21.068Z,17.25
2022-10-19T21:14:50.185Z,21.00
2022-10-19T21:17:18.091Z,18.50
2022-10-19T21:19:47.636Z,18.25
2022-10-19T21:22:15.589Z,17.00
2022-10-19T21:24:43.423Z,18.25
2022-10-19T21:27:11.264Z,19.50
2022-10-19T21:29:39.516Z,19.25
2022-10-19T21:32:07.351Z,18.00
2022-10-19T21:34:35.490Z,15.50
2022-10-19T21:37:05.035Z,17.25
2022-10-19T21:39:33.205Z,16.25
2022-10-19T21:42:01.065Z,17.50
2022-10-19T21:44:28.988Z,15.25
2022-10-19T21:46:56.838Z,16.75
2022-10-19T21:49:24.998Z,14.50
2022-10-19T21:51:53.601Z,17.75
2022-10-19T21:54:24.571Z,18.00
2022-10-19T21:56:53.161Z,15.00
2022-10-19T21:59:21.090Z,16.00
2022-10-19T22:01:48.981Z,14.75
2022-10-19T22:04:17.783Z,13.25
2022-10-19T22:06:45.740Z,14.25
2022-10-19T22:09:14.937Z,14.25
2022-10-19T22:11:44.223Z,13.25
2022-10-19T22:14:13.083Z,12.25
2022-10-19T22:16:40.972Z,13.75
2022-10-19T22:19:10.055Z,12.75
2022-10-19T22:24:12.244Z,9.00
2022-10-19T22:26:41.106Z,11.75
2022-10-19T22:29:10.659Z,12.25
2022-10-19T22:31:38.718Z,12.25
2022-10-19T22:34:07.753Z,10.75
2022-10-19T22:36:35.643Z,11.00
2022-10-19T22:39:03.909Z,10.75
2022-10-19T22:41:31.829Z,11.00
2022-10-19T22:43:59.722Z,10.75
2022-10-19T22:46:28.988Z,11.50
2022-10-19T22:48:57.233Z,12.00
2022-10-19T22:51:25.124Z,11.25
2022-10-19T22:53:52.983Z,11.00
2022-10-19T22:56:20.875Z,9.75
2022-10-19T22:58:49.023Z,9.00
2022-10-19T23:01:17.077Z,10.00
2022-10-19T23:03:46.420Z,8.50
2022-10-19T23:06:14.740Z,11.00
2022-10-19T23:08:43.256Z,9.50
2022-10-19T23:11:11.193Z,9.75
2022-10-19T23:13:39.077Z,8.75
2022-10-19T23:16:07.457Z,10.00
2022-10-19T23:18:35.784Z,10.00
2022-10-19T23:21:06.688Z,9.25
2022-10-19T23:23:34.934Z,7.50
2022-10-19T23:26:03.746Z,9.50
2022-10-19T23:28:31.792Z,9.00
2022-10-19T23:31:00.075Z,9.00
2022-10-19T23:33:27.947Z,10.00
2022-10-19T23:35:55.799Z,9.50
2022-10-19T23:38:25.071Z,8.75
2022-10-19T23:40:53.307Z,8.00
2022-10-19T23:43:21.175Z,9.00
2022-10-19T23:45:49.062Z,9.75
2022-10-19T23:48:16.917Z,8.25
2022-10-19T23:50:45.065Z,8.75
2022-10-19T23:53:12.932Z,8.00
2022-10-19T23:55:42.177Z,7.75
2022-10-19T23:58:10.044Z,10.00
